sensor_id;sensor_type;location;lat;lon;timestamp;P1;P2;P0
47982;PMS5003;33751;50.816;-1.214;2022-09-17T00:00:14;4;4;
47982;PMS5003;33751;50.816;-1.214;2022-09-17T00:02:41;2;2;
47982;PMS5003;33751;50.816;-1.214;2022-09-17T00:05:08;3;3;
47982;PMS5003;33751;50.816;-1.214;2022-09-17T00:07:34;2;1;
47982;PMS5003;33751;50.816;-1.214;2022-09-17T00:10:01;2;2;
47982;PMS5003;33751;50.816;-1.214;2022-09-17T00:12:27;2;2;
47982;PMS5003;33751;50.816;-1.214;2022-09-17T00:14:54;2;2;
47982;PMS5003;33751;50.816;-1.214;2022-09-17T00:17:20;3;3;
47982;PMS5003;33751;50.816;-1.214;2022-09-17T00:19:47;2;2;
47982;PMS5003;33751;50.816;-1.214;2022-09-17T00:22:13;2;2;
47982;PMS5003;33751;50.816;-1.214;2022-09-17T00:24:40;1;1;
47982;PMS5003;33751;50.816;-1.214;2022-09-17T00:27:07;2;2;
47982;PMS5003;33751;50.816;-1.214;2022-09-17T00:29:34;3;3;
47982;PMS5003;33751;50.816;-1.214;2022-09-17T00:32:01;3;2;
47982;PMS5003;33751;50.816;-1.214;2022-09-17T00:34:28;2;2;
47982;PMS5003;33751;50.816;-1.214;2022-09-17T00:36:54;2;2;
47982;PMS5003;33751;50.816;-1.214;2022-09-17T00:39:21;1;1;
47982;PMS5003;33751;50.816;-1.214;2022-09-17T00:41:48;2;2;
47982;PMS5003;33751;50.816;-1.214;2022-09-17T00:44:48;2;2;
47982;PMS5003;33751;50.816;-1.214;2022-09-17T00:47:21;2;2;
47982;PMS5003;33751;50.816;-1.214;2022-09-17T00:49:51;6;6;
47982;PMS5003;33751;50.816;-1.214;2022-09-17T00:52:22;8;8;
47982;PMS5003;33751;50.816;-1.214;2022-09-17T00:54:54;12;10;
47982;PMS5003;33751;50.816;-1.214;2022-09-17T00:57:25;6;6;
47982;PMS5003;33751;50.816;-1.214;2022-09-17T00:59:53;7;7;
47982;PMS5003;33751;50.816;-1.214;2022-09-17T01:02:22;5;5;
47982;PMS5003;33751;50.816;-1.214;2022-09-17T01:04:49;1;1;
47982;PMS5003;33751;50.816;-1.214;2022-09-17T01:07:20;3;3;
47982;PMS5003;33751;50.816;-1.214;2022-09-17T01:10:02;2;2;
47982;PMS5003;33751;50.816;-1.214;2022-09-17T01:12:43;4;4;
47982;PMS5003;33751;50.816;-1.214;2022-09-17T01:15:25;3;1;
47982;PMS5003;33751;50.816;-1.214;2022-09-17T01:18:05;2;2;
47982;PMS5003;33751;50.816;-1.214;2022-09-17T01:20:48;1;1;
47982;PMS5003;33751;50.816;-1.214;2022-09-17T01:21:31;1;1;
47982;PMS5003;33751;50.816;-1.214;2022-09-17T01:24:13;3;3;
47982;PMS5003;33751;50.816;-1.214;2022-09-17T01:27:01;4;3;
47982;PMS5003;33751;50.816;-1.214;2022-09-17T01:29:47;1;1;
47982;PMS5003;33751;50.816;-1.214;2022-09-17T01:32:30;3;2;
47982;PMS5003;33751;50.816;-1.214;2022-09-17T01:35:02;2;2;
47982;PMS5003;33751;50.816;-1.214;2022-09-17T01:37:35;2;2;
47982;PMS5003;33751;50.816;-1.214;2022-09-17T01:40:10;2;2;
47982;PMS5003;33751;50.816;-1.214;2022-09-17T01:42:45;0;0;
47982;PMS5003;33751;50.816;-1.214;2022-09-17T01:45:20;2;2;
47982;PMS5003;33751;50.816;-1.214;2022-09-17T01:47:53;4;2;
47982;PMS5003;33751;50.816;-1.214;2022-09-17T01:50:24;1;1;
47982;PMS5003;33751;50.816;-1.214;2022-09-17T01:52:55;1;1;
47982;PMS5003;33751;50.816;-1.214;2022-09-17T01:55:24;3;3;
47982;PMS5003;33751;50.816;-1.214;2022-09-17T01:57:56;2;2;
47982;PMS5003;33751;50.816;-1.214;2022-09-17T02:00:28;2;2;
47982;PMS5003;33751;50.816;-1.214;2022-09-17T02:02:58;2;2;
47982;PMS5003;33751;50.816;-1.214;2022-09-17T02:05:29;0;0;
47982;PMS5003;33751;50.816;-1.214;2022-09-17T02:08:04;4;2;
47982;PMS5003;33751;50.816;-1.214;2022-09-17T02:10:35;2;2;
47982;PMS5003;33751;50.816;-1.214;2022-09-17T02:13:09;2;2;
47982;PMS5003;33751;50.816;-1.214;2022-09-17T02:15:44;4;3;
47982;PMS5003;33751;50.816;-1.214;2022-09-17T02:18:17;2;2;
47982;PMS5003;33751;50.816;-1.214;2022-09-17T02:20:51;3;3;
47982;PMS5003;33751;50.816;-1.214;2022-09-17T02:23:23;3;3;
47982;PMS5003;33751;50.816;-1.214;2022-09-17T02:25:56;2;2;
47982;PMS5003;33751;50.816;-1.214;2022-09-17T02:28:30;2;2;
47982;PMS5003;33751;50.816;-1.214;2022-09-17T02:31:05;1;1;
47982;PMS5003;33751;50.816;-1.214;2022-09-17T02:33:32;2;2;
47982;PMS5003;33751;50.816;-1.214;2022-09-17T02:36:01;4;4;
47982;PMS5003;33751;50.816;-1.214;2022-09-17T02:38:29;5;5;
47982;PMS5003;33751;50.816;-1.214;2022-09-17T02:40:58;9;6;
47982;PMS5003;33751;50.816;-1.214;2022-09-17T02:43:33;10;9;
47982;PMS5003;33751;50.816;-1.214;2022-09-17T02:46:10;7;7;
47982;PMS5003;33751;50.816;-1.214;2022-09-17T02:48:55;13;8;
47982;PMS5003;33751;50.816;-1.214;2022-09-17T02:51:46;8;7;
47982;PMS5003;33751;50.816;-1.214;2022-09-17T02:54:24;14;6;
47982;PMS5003;33751;50.816;-1.214;2022-09-17T02:56:56;6;5;
47982;PMS5003;33751;50.816;-1.214;2022-09-17T02:59:34;6;4;
47982;PMS5003;33751;50.816;-1.214;2022-09-17T03:02:07;6;6;
47982;PMS5003;33751;50.816;-1.214;2022-09-17T03:04:42;2;2;
47982;PMS5003;33751;50.816;-1.214;2022-09-17T03:07:11;5;4;
47982;PMS5003;33751;50.816;-1.214;2022-09-17T03:09:39;2;2;
47982;PMS5003;33751;50.816;-1.214;2022-09-17T03:12:06;3;3;
47982;PMS5003;33751;50.816;-1.214;2022-09-17T03:14:33;3;3;
47982;PMS5003;33751;50.816;-1.214;2022-09-17T03:17:00;2;2;
47982;PMS5003;33751;50.816;-1.214;2022-09-17T03:19:28;2;2;
47982;PMS5003;33751;50.816;-1.214;2022-09-17T03:21:54;4;4;
47982;PMS5003;33751;50.816;-1.214;2022-09-17T03:24:21;4;4;
47982;PMS5003;33751;50.816;-1.214;2022-09-17T03:26:47;3;3;
47982;PMS5003;33751;50.816;-1.214;2022-09-17T03:29:15;3;3;
47982;PMS5003;33751;50.816;-1.214;2022-09-17T03:31:42;4;3;
47982;PMS5003;33751;50.816;-1.214;2022-09-17T03:34:09;3;3;
47982;PMS5003;33751;50.816;-1.214;2022-09-17T03:36:36;1;1;
47982;PMS5003;33751;50.816;-1.214;2022-09-17T03:39:03;3;3;
47982;PMS5003;33751;50.816;-1.214;2022-09-17T03:41:30;3;2;
47982;PMS5003;33751;50.816;-1.214;2022-09-17T03:43:56;4;4;
47982;PMS5003;33751;50.816;-1.214;2022-09-17T03:46:23;4;4;
47982;PMS5003;33751;50.816;-1.214;2022-09-17T03:48:50;5;4;
47982;PMS5003;33751;50.816;-1.214;2022-09-17T03:51:16;4;3;
47982;PMS5003;33751;50.816;-1.214;2022-09-17T03:53:43;4;4;
47982;PMS5003;33751;50.816;-1.214;2022-09-17T03:56:09;2;2;
47982;PMS5003;33751;50.816;-1.214;2022-09-17T03:58:36;6;3;
47982;PMS5003;33751;50.816;-1.214;2022-09-17T04:01:03;3;3;
47982;PMS5003;33751;50.816;-1.214;2022-09-17T04:03:30;2;2;
47982;PMS5003;33751;50.816;-1.214;2022-09-17T04:05:57;5;5;
47982;PMS5003;33751;50.816;-1.214;2022-09-17T04:08:24;4;2;
47982;PMS5003;33751;50.816;-1.214;2022-09-17T04:10:51;5;5;
47982;PMS5003;33751;50.816;-1.214;2022-09-17T04:13:18;3;3;
47982;PMS5003;33751;50.816;-1.214;2022-09-17T04:15:45;3;2;
47982;PMS5003;33751;50.816;-1.214;2022-09-17T04:18:13;4;4;
47982;PMS5003;33751;50.816;-1.214;2022-09-17T04:20:39;4;2;
47982;PMS5003;33751;50.816;-1.214;2022-09-17T04:23:07;5;3;
47982;PMS5003;33751;50.816;-1.214;2022-09-17T04:25:35;3;3;
47982;PMS5003;33751;50.816;-1.214;2022-09-17T04:28:01;3;3;
47982;PMS5003;33751;50.816;-1.214;2022-09-17T04:30:29;4;4;
47982;PMS5003;33751;50.816;-1.214;2022-09-17T04:32:56;4;4;
47982;PMS5003;33751;50.816;-1.214;2022-09-17T04:35:23;3;3;
47982;PMS5003;33751;50.816;-1.214;2022-09-17T04:37:51;2;2;
47982;PMS5003;33751;50.816;-1.214;2022-09-17T04:40:19;3;3;
47982;PMS5003;33751;50.816;-1.214;2022-09-17T04:42:46;4;4;
47982;PMS5003;33751;50.816;-1.214;2022-09-17T04:45:13;3;3;
47982;PMS5003;33751;50.816;-1.214;2022-09-17T04:47:40;4;3;
47982;PMS5003;33751;50.816;-1.214;2022-09-17T04:50:07;3;3;
47982;PMS5003;33751;50.816;-1.214;2022-09-17T04:52:34;1;1;
47982;PMS5003;33751;50.816;-1.214;2022-09-17T04:55:01;2;2;
47982;PMS5003;33751;50.816;-1.214;2022-09-17T04:57:28;4;4;
47982;PMS5003;33751;50.816;-1.214;2022-09-17T04:59:54;3;3;
47982;PMS5003;33751;50.816;-1.214;2022-09-17T05:02:21;3;1;
47982;PMS5003;33751;50.816;-1.214;2022-09-17T05:04:48;3;3;
47982;PMS5003;33751;50.816;-1.214;2022-09-17T05:07:14;3;3;
47982;PMS5003;33751;50.816;-1.214;2022-09-17T05:09:41;2;2;
47982;PMS5003;33751;50.816;-1.214;2022-09-17T05:12:07;8;4;
47982;PMS5003;33751;50.816;-1.214;2022-09-17T05:14:34;2;2;
47982;PMS5003;33751;50.816;-1.214;2022-09-17T05:17:01;3;3;
47982;PMS5003;33751;50.816;-1.214;2022-09-17T05:19:28;2;2;
47982;PMS5003;33751;50.816;-1.214;2022-09-17T05:21:55;3;1;
47982;PMS5003;33751;50.816;-1.214;2022-09-17T05:24:21;3;3;
47982;PMS5003;33751;50.816;-1.214;2022-09-17T05:26:48;3;3;
47982;PMS5003;33751;50.816;-1.214;2022-09-17T05:29:15;3;3;
47982;PMS5003;33751;50.816;-1.214;2022-09-17T05:31:42;3;3;
47982;PMS5003;33751;50.816;-1.214;2022-09-17T05:34:09;2;2;
47982;PMS5003;33751;50.816;-1.214;2022-09-17T05:36:36;2;2;
47982;PMS5003;33751;50.816;-1.214;2022-09-17T05:39:03;2;2;
47982;PMS5003;33751;50.816;-1.214;2022-09-17T05:41:30;1;1;
47982;PMS5003;33751;50.816;-1.214;2022-09-17T05:43:57;8;1;
47982;PMS5003;33751;50.816;-1.214;2022-09-17T05:46:23;3;3;
47982;PMS5003;33751;50.816;-1.214;2022-09-17T05:48:50;3;3;
47982;PMS5003;33751;50.816;-1.214;2022-09-17T05:51:16;3;1;
47982;PMS5003;33751;50.816;-1.214;2022-09-17T05:53:43;2;2;
47982;PMS5003;33751;50.816;-1.214;2022-09-17T05:56:10;2;2;
47982;PMS5003;33751;50.816;-1.214;2022-09-17T05:58:37;2;2;
47982;PMS5003;33751;50.816;-1.214;2022-09-17T06:01:04;2;2;
47982;PMS5003;33751;50.816;-1.214;2022-09-17T06:03:31;3;3;
47982;PMS5003;33751;50.816;-1.214;2022-09-17T06:05:58;2;1;
47982;PMS5003;33751;50.816;-1.214;2022-09-17T06:08:27;1;1;
47982;PMS5003;33751;50.816;-1.214;2022-09-17T06:10:54;2;1;
47982;PMS5003;33751;50.816;-1.214;2022-09-17T06:13:21;1;1;
47982;PMS5003;33751;50.816;-1.214;2022-09-17T06:15:49;1;1;
47982;PMS5003;33751;50.816;-1.214;2022-09-17T06:18:16;3;3;
47982;PMS5003;33751;50.816;-1.214;2022-09-17T06:20:51;0;0;
47982;PMS5003;33751;50.816;-1.214;2022-09-17T06:23:18;2;2;
47982;PMS5003;33751;50.816;-1.214;2022-09-17T06:25:49;2;2;
47982;PMS5003;33751;50.816;-1.214;2022-09-17T06:28:17;2;2;
47982;PMS5003;33751;50.816;-1.214;2022-09-17T06:30:44;1;1;
47982;PMS5003;33751;50.816;-1.214;2022-09-17T06:33:11;7;1;
47982;PMS5003;33751;50.816;-1.214;2022-09-17T06:35:37;4;3;
47982;PMS5003;33751;50.816;-1.214;2022-09-17T06:38:04;3;2;
47982;PMS5003;33751;50.816;-1.214;2022-09-17T06:40:30;2;2;
47982;PMS5003;33751;50.816;-1.214;2022-09-17T06:42:58;2;2;
47982;PMS5003;33751;50.816;-1.214;2022-09-17T06:45:25;3;3;
47982;PMS5003;33751;50.816;-1.214;2022-09-17T06:47:53;3;3;
47982;PMS5003;33751;50.816;-1.214;2022-09-17T06:50:19;2;2;
47982;PMS5003;33751;50.816;-1.214;2022-09-17T06:52:47;3;3;
47982;PMS5003;33751;50.816;-1.214;2022-09-17T06:55:14;1;1;
47982;PMS5003;33751;50.816;-1.214;2022-09-17T06:57:42;2;2;
47982;PMS5003;33751;50.816;-1.214;2022-09-17T07:00:10;1;1;
47982;PMS5003;33751;50.816;-1.214;2022-09-17T07:02:38;1;1;
47982;PMS5003;33751;50.816;-1.214;2022-09-17T07:05:05;2;2;
47982;PMS5003;33751;50.816;-1.214;2022-09-17T07:07:32;1;1;
47982;PMS5003;33751;50.816;-1.214;2022-09-17T07:09:59;1;1;
47982;PMS5003;33751;50.816;-1.214;2022-09-17T07:12:26;1;1;
47982;PMS5003;33751;50.816;-1.214;2022-09-17T07:14:53;2;2;
47982;PMS5003;33751;50.816;-1.214;2022-09-17T07:17:21;3;3;
47982;PMS5003;33751;50.816;-1.214;2022-09-17T07:19:47;3;3;
47982;PMS5003;33751;50.816;-1.214;2022-09-17T07:22:14;3;3;
47982;PMS5003;33751;50.816;-1.214;2022-09-17T07:24:40;3;3;
47982;PMS5003;33751;50.816;-1.214;2022-09-17T07:27:07;4;3;
47982;PMS5003;33751;50.816;-1.214;2022-09-17T07:29:33;5;5;
47982;PMS5003;33751;50.816;-1.214;2022-09-17T07:32:00;6;6;
47982;PMS5003;33751;50.816;-1.214;2022-09-17T07:34:27;8;4;
47982;PMS5003;33751;50.816;-1.214;2022-09-17T07:36:54;4;4;
47982;PMS5003;33751;50.816;-1.214;2022-09-17T07:39:20;2;2;
47982;PMS5003;33751;50.816;-1.214;2022-09-17T07:41:47;5;5;
47982;PMS5003;33751;50.816;-1.214;2022-09-17T07:44:14;4;4;
47982;PMS5003;33751;50.816;-1.214;2022-09-17T07:46:41;3;3;
47982;PMS5003;33751;50.816;-1.214;2022-09-17T07:49:08;5;4;
47982;PMS5003;33751;50.816;-1.214;2022-09-17T07:51:34;3;3;
47982;PMS5003;33751;50.816;-1.214;2022-09-17T07:54:02;4;4;
47982;PMS5003;33751;50.816;-1.214;2022-09-17T07:56:28;3;3;
47982;PMS5003;33751;50.816;-1.214;2022-09-17T07:58:55;6;5;
47982;PMS5003;33751;50.816;-1.214;2022-09-17T08:01:22;5;5;
47982;PMS5003;33751;50.816;-1.214;2022-09-17T08:03:50;2;2;
47982;PMS5003;33751;50.816;-1.214;2022-09-17T08:06:18;4;3;
47982;PMS5003;33751;50.816;-1.214;2022-09-17T08:08:47;1;1;
47982;PMS5003;33751;50.816;-1.214;2022-09-17T08:11:15;4;3;
47982;PMS5003;33751;50.816;-1.214;2022-09-17T08:13:46;2;2;
47982;PMS5003;33751;50.816;-1.214;2022-09-17T08:16:13;4;2;
47982;PMS5003;33751;50.816;-1.214;2022-09-17T08:18:41;3;3;
47982;PMS5003;33751;50.816;-1.214;2022-09-17T08:21:09;1;1;
47982;PMS5003;33751;50.816;-1.214;2022-09-17T08:23:37;1;1;
47982;PMS5003;33751;50.816;-1.214;2022-09-17T08:26:06;1;1;
47982;PMS5003;33751;50.816;-1.214;2022-09-17T08:28:38;1;1;
47982;PMS5003;33751;50.816;-1.214;2022-09-17T08:31:05;1;1;
47982;PMS5003;33751;50.816;-1.214;2022-09-17T08:33:34;1;1;
47982;PMS5003;33751;50.816;-1.214;2022-09-17T08:36:02;1;1;
47982;PMS5003;33751;50.816;-1.214;2022-09-17T08:38:31;2;1;
47982;PMS5003;33751;50.816;-1.214;2022-09-17T08:41:02;3;1;
47982;PMS5003;33751;50.816;-1.214;2022-09-17T08:43:44;1;1;
47982;PMS5003;33751;50.816;-1.214;2022-09-17T08:46:17;1;1;
47982;PMS5003;33751;50.816;-1.214;2022-09-17T08:48:46;1;1;
47982;PMS5003;33751;50.816;-1.214;2022-09-17T08:51:22;2;0;
47982;PMS5003;33751;50.816;-1.214;2022-09-17T08:53:59;1;1;
47982;PMS5003;33751;50.816;-1.214;2022-09-17T08:56:34;0;0;
47982;PMS5003;33751;50.816;-1.214;2022-09-17T08:59:05;0;0;
47982;PMS5003;33751;50.816;-1.214;2022-09-17T09:01:41;1;1;
47982;PMS5003;33751;50.816;-1.214;2022-09-17T09:04:24;1;1;
47982;PMS5003;33751;50.816;-1.214;2022-09-17T09:07:03;0;0;
47982;PMS5003;33751;50.816;-1.214;2022-09-17T09:09:35;3;1;
47982;PMS5003;33751;50.816;-1.214;2022-09-17T09:12:07;1;1;
47982;PMS5003;33751;50.816;-1.214;2022-09-17T09:14:42;0;0;
47982;PMS5003;33751;50.816;-1.214;2022-09-17T09:17:16;1;1;
47982;PMS5003;33751;50.816;-1.214;2022-09-17T09:19:44;1;1;
47982;PMS5003;33751;50.816;-1.214;2022-09-17T09:22:14;1;1;
47982;PMS5003;33751;50.816;-1.214;2022-09-17T09:25:12;0;0;
47982;PMS5003;33751;50.816;-1.214;2022-09-17T09:27:46;1;1;
47982;PMS5003;33751;50.816;-1.214;2022-09-17T09:30:22;1;1;
47982;PMS5003;33751;50.816;-1.214;2022-09-17T09:32:51;0;0;
47982;PMS5003;33751;50.816;-1.214;2022-09-17T09:35:24;0;0;
47982;PMS5003;33751;50.816;-1.214;2022-09-17T09:37:54;0;0;
47982;PMS5003;33751;50.816;-1.214;2022-09-17T09:40:29;0;0;
47982;PMS5003;33751;50.816;-1.214;2022-09-17T09:43:06;0;0;
47982;PMS5003;33751;50.816;-1.214;2022-09-17T09:45:46;0;0;
47982;PMS5003;33751;50.816;-1.214;2022-09-17T09:48:22;1;0;
47982;PMS5003;33751;50.816;-1.214;2022-09-17T09:50:58;1;1;
47982;PMS5003;33751;50.816;-1.214;2022-09-17T09:53:38;1;1;
47982;PMS5003;33751;50.816;-1.214;2022-09-17T09:56:34;0;0;
47982;PMS5003;33751;50.816;-1.214;2022-09-17T09:59:13;1;1;
47982;PMS5003;33751;50.816;-1.214;2022-09-17T10:01:41;1;1;
47982;PMS5003;33751;50.816;-1.214;2022-09-17T10:04:13;0;0;
47982;PMS5003;33751;50.816;-1.214;2022-09-17T10:06:44;1;1;
47982;PMS5003;33751;50.816;-1.214;2022-09-17T10:09:12;0;0;
47982;PMS5003;33751;50.816;-1.214;2022-09-17T10:11:41;0;0;
47982;PMS5003;33751;50.816;-1.214;2022-09-17T10:14:20;1;0;
47982;PMS5003;33751;50.816;-1.214;2022-09-17T10:16:48;1;1;
47982;PMS5003;33751;50.816;-1.214;2022-09-17T10:19:18;0;0;
47982;PMS5003;33751;50.816;-1.214;2022-09-17T10:21:46;1;1;
47982;PMS5003;33751;50.816;-1.214;2022-09-17T10:24:14;0;0;
47982;PMS5003;33751;50.816;-1.214;2022-09-17T10:26:49;1;1;
47982;PMS5003;33751;50.816;-1.214;2022-09-17T10:29:17;0;0;
47982;PMS5003;33751;50.816;-1.214;2022-09-17T10:31:47;0;0;
47982;PMS5003;33751;50.816;-1.214;2022-09-17T10:34:18;0;0;
47982;PMS5003;33751;50.816;-1.214;2022-09-17T10:36:47;1;1;
47982;PMS5003;33751;50.816;-1.214;2022-09-17T10:39:28;6;4;
47982;PMS5003;33751;50.816;-1.214;2022-09-17T10:41:57;0;0;
47982;PMS5003;33751;50.816;-1.214;2022-09-17T10:44:26;1;1;
47982;PMS5003;33751;50.816;-1.214;2022-09-17T10:46:55;1;0;
47982;PMS5003;33751;50.816;-1.214;2022-09-17T10:49:33;0;0;
47982;PMS5003;33751;50.816;-1.214;2022-09-17T10:52:05;0;0;
47982;PMS5003;33751;50.816;-1.214;2022-09-17T10:54:40;0;0;
47982;PMS5003;33751;50.816;-1.214;2022-09-17T10:57:24;0;0;
47982;PMS5003;33751;50.816;-1.214;2022-09-17T11:00:06;0;0;
47982;PMS5003;33751;50.816;-1.214;2022-09-17T11:02:44;0;0;
47982;PMS5003;33751;50.816;-1.214;2022-09-17T11:03:27;0;0;
47982;PMS5003;33751;50.816;-1.214;2022-09-17T11:06:12;1;0;
47982;PMS5003;33751;50.816;-1.214;2022-09-17T11:08:58;0;0;
47982;PMS5003;33751;50.816;-1.214;2022-09-17T11:11:36;1;1;
47982;PMS5003;33751;50.816;-1.214;2022-09-17T11:14:13;3;0;
47982;PMS5003;33751;50.816;-1.214;2022-09-17T11:16:55;0;0;
47982;PMS5003;33751;50.816;-1.214;2022-09-17T11:19:35;0;0;
47982;PMS5003;33751;50.816;-1.214;2022-09-17T11:22:10;1;1;
47982;PMS5003;33751;50.816;-1.214;2022-09-17T11:25:01;0;0;
47982;PMS5003;33751;50.816;-1.214;2022-09-17T11:27:47;3;2;
47982;PMS5003;33751;50.816;-1.214;2022-09-17T11:30:25;0;0;
47982;PMS5003;33751;50.816;-1.214;2022-09-17T11:33:12;1;1;
47982;PMS5003;33751;50.816;-1.214;2022-09-17T11:35:50;2;1;
47982;PMS5003;33751;50.816;-1.214;2022-09-17T11:38:22;0;0;
47982;PMS5003;33751;50.816;-1.214;2022-09-17T11:40:57;0;0;
47982;PMS5003;33751;50.816;-1.214;2022-09-17T11:43:28;0;0;
47982;PMS5003;33751;50.816;-1.214;2022-09-17T11:45:59;0;0;
47982;PMS5003;33751;50.816;-1.214;2022-09-17T11:48:33;0;0;
47982;PMS5003;33751;50.816;-1.214;2022-09-17T11:51:07;0;0;
47982;PMS5003;33751;50.816;-1.214;2022-09-17T11:53:47;1;1;
47982;PMS5003;33751;50.816;-1.214;2022-09-17T11:56:19;0;0;
47982;PMS5003;33751;50.816;-1.214;2022-09-17T11:58:53;0;0;
47982;PMS5003;33751;50.816;-1.214;2022-09-17T12:01:27;0;0;
47982;PMS5003;33751;50.816;-1.214;2022-09-17T12:04:01;1;1;
47982;PMS5003;33751;50.816;-1.214;2022-09-17T12:06:43;0;0;
47982;PMS5003;33751;50.816;-1.214;2022-09-17T12:09:18;0;0;
47982;PMS5003;33751;50.816;-1.214;2022-09-17T12:11:52;0;0;
47982;PMS5003;33751;50.816;-1.214;2022-09-17T12:14:28;1;1;
47982;PMS5003;33751;50.816;-1.214;2022-09-17T12:16:57;1;1;
47982;PMS5003;33751;50.816;-1.214;2022-09-17T12:19:28;3;0;
47982;PMS5003;33751;50.816;-1.214;2022-09-17T12:22:00;0;0;
47982;PMS5003;33751;50.816;-1.214;2022-09-17T12:24:34;0;0;
47982;PMS5003;33751;50.816;-1.214;2022-09-17T12:27:10;0;0;
47982;PMS5003;33751;50.816;-1.214;2022-09-17T12:29:47;0;0;
47982;PMS5003;33751;50.816;-1.214;2022-09-17T12:32:34;0;0;
47982;PMS5003;33751;50.816;-1.214;2022-09-17T12:33:17;0;0;
47982;PMS5003;33751;50.816;-1.214;2022-09-17T12:36:10;0;0;
47982;PMS5003;33751;50.816;-1.214;2022-09-17T12:38:55;0;0;
47982;PMS5003;33751;50.816;-1.214;2022-09-17T12:41:35;0;0;
47982;PMS5003;33751;50.816;-1.214;2022-09-17T12:44:17;0;0;
47982;PMS5003;33751;50.816;-1.214;2022-09-17T12:47:00;0;0;
47982;PMS5003;33751;50.816;-1.214;2022-09-17T12:49:43;0;0;
47982;PMS5003;33751;50.816;-1.214;2022-09-17T12:52:41;0;0;
47982;PMS5003;33751;50.816;-1.214;2022-09-17T12:55:20;2;1;
47982;PMS5003;33751;50.816;-1.214;2022-09-17T12:57:58;0;0;
47982;PMS5003;33751;50.816;-1.214;2022-09-17T13:00:35;0;0;
47982;PMS5003;33751;50.816;-1.214;2022-09-17T13:03:11;0;0;
47982;PMS5003;33751;50.816;-1.214;2022-09-17T13:06:05;0;0;
47982;PMS5003;33751;50.816;-1.214;2022-09-17T13:08:54;0;0;
47982;PMS5003;33751;50.816;-1.214;2022-09-17T13:12:21;0;0;
47982;PMS5003;33751;50.816;-1.214;2022-09-17T13:15:01;0;0;
47982;PMS5003;33751;50.816;-1.214;2022-09-17T13:17:45;0;0;
47982;PMS5003;33751;50.816;-1.214;2022-09-17T13:20:20;0;0;
47982;PMS5003;33751;50.816;-1.214;2022-09-17T13:22:52;0;0;
47982;PMS5003;33751;50.816;-1.214;2022-09-17T13:25:22;0;0;
47982;PMS5003;33751;50.816;-1.214;2022-09-17T13:28:02;1;0;
47982;PMS5003;33751;50.816;-1.214;2022-09-17T13:30:54;1;1;
47982;PMS5003;33751;50.816;-1.214;2022-09-17T13:33:56;0;0;
47982;PMS5003;33751;50.816;-1.214;2022-09-17T13:36:40;0;0;
47982;PMS5003;33751;50.816;-1.214;2022-09-17T13:39:31;0;0;
47982;PMS5003;33751;50.816;-1.214;2022-09-17T13:42:03;0;0;
47982;PMS5003;33751;50.816;-1.214;2022-09-17T13:44:35;0;0;
47982;PMS5003;33751;50.816;-1.214;2022-09-17T13:47:08;0;0;
47982;PMS5003;33751;50.816;-1.214;2022-09-17T13:49:43;0;0;
47982;PMS5003;33751;50.816;-1.214;2022-09-17T13:52:12;0;0;
47982;PMS5003;33751;50.816;-1.214;2022-09-17T13:54:39;0;0;
47982;PMS5003;33751;50.816;-1.214;2022-09-17T13:57:09;0;0;
47982;PMS5003;33751;50.816;-1.214;2022-09-17T13:59:40;0;0;
47982;PMS5003;33751;50.816;-1.214;2022-09-17T14:02:36;0;0;
47982;PMS5003;33751;50.816;-1.214;2022-09-17T14:05:36;0;0;
47982;PMS5003;33751;50.816;-1.214;2022-09-17T14:08:08;0;0;
47982;PMS5003;33751;50.816;-1.214;2022-09-17T14:10:41;0;0;
47982;PMS5003;33751;50.816;-1.214;2022-09-17T14:13:25;0;0;
47982;PMS5003;33751;50.816;-1.214;2022-09-17T14:13:44;0;0;
47982;PMS5003;33751;50.816;-1.214;2022-09-17T14:16:31;0;0;
47982;PMS5003;33751;50.816;-1.214;2022-09-17T14:19:00;0;0;
47982;PMS5003;33751;50.816;-1.214;2022-09-17T14:21:30;0;0;
47982;PMS5003;33751;50.816;-1.214;2022-09-17T14:23:59;0;0;
47982;PMS5003;33751;50.816;-1.214;2022-09-17T14:27:06;1;0;
47982;PMS5003;33751;50.816;-1.214;2022-09-17T14:29:45;0;0;
47982;PMS5003;33751;50.816;-1.214;2022-09-17T14:32:23;0;0;
47982;PMS5003;33751;50.816;-1.214;2022-09-17T14:34:54;0;0;
47982;PMS5003;33751;50.816;-1.214;2022-09-17T14:37:21;0;0;
47982;PMS5003;33751;50.816;-1.214;2022-09-17T14:39:50;0;0;
47982;PMS5003;33751;50.816;-1.214;2022-09-17T14:42:18;0;0;
47982;PMS5003;33751;50.816;-1.214;2022-09-17T14:44:50;0;0;
47982;PMS5003;33751;50.816;-1.214;2022-09-17T14:47:23;0;0;
47982;PMS5003;33751;50.816;-1.214;2022-09-17T14:49:50;0;0;
47982;PMS5003;33751;50.816;-1.214;2022-09-17T14:52:22;0;0;
47982;PMS5003;33751;50.816;-1.214;2022-09-17T14:55:08;0;0;
47982;PMS5003;33751;50.816;-1.214;2022-09-17T14:57:35;0;0;
47982;PMS5003;33751;50.816;-1.214;2022-09-17T15:00:03;0;0;
47982;PMS5003;33751;50.816;-1.214;2022-09-17T15:02:32;1;1;
47982;PMS5003;33751;50.816;-1.214;2022-09-17T15:05:15;0;0;
47982;PMS5003;33751;50.816;-1.214;2022-09-17T15:07:48;0;0;
47982;PMS5003;33751;50.816;-1.214;2022-09-17T15:10:16;0;0;
47982;PMS5003;33751;50.816;-1.214;2022-09-17T15:12:45;0;0;
47982;PMS5003;33751;50.816;-1.214;2022-09-17T15:15:16;0;0;
47982;PMS5003;33751;50.816;-1.214;2022-09-17T15:17:46;1;1;
47982;PMS5003;33751;50.816;-1.214;2022-09-17T15:20:15;0;0;
47982;PMS5003;33751;50.816;-1.214;2022-09-17T15:22:46;0;0;
47982;PMS5003;33751;50.816;-1.214;2022-09-17T15:25:20;0;0;
47982;PMS5003;33751;50.816;-1.214;2022-09-17T15:27:48;0;0;
47982;PMS5003;33751;50.816;-1.214;2022-09-17T15:30:19;0;0;
47982;PMS5003;33751;50.816;-1.214;2022-09-17T15:32:47;0;0;
47982;PMS5003;33751;50.816;-1.214;2022-09-17T15:35:21;0;0;
47982;PMS5003;33751;50.816;-1.214;2022-09-17T15:37:50;0;0;
47982;PMS5003;33751;50.816;-1.214;2022-09-17T15:40:23;0;0;
47982;PMS5003;33751;50.816;-1.214;2022-09-17T15:42:56;0;0;
47982;PMS5003;33751;50.816;-1.214;2022-09-17T15:45:28;1;1;
47982;PMS5003;33751;50.816;-1.214;2022-09-17T15:47:56;0;0;
47982;PMS5003;33751;50.816;-1.214;2022-09-17T15:50:25;0;0;
47982;PMS5003;33751;50.816;-1.214;2022-09-17T15:53:10;0;0;
47982;PMS5003;33751;50.816;-1.214;2022-09-17T15:55:39;0;0;
47982;PMS5003;33751;50.816;-1.214;2022-09-17T15:58:25;0;0;
47982;PMS5003;33751;50.816;-1.214;2022-09-17T16:01:23;0;0;
47982;PMS5003;33751;50.816;-1.214;2022-09-17T16:04:22;0;0;
47982;PMS5003;33751;50.816;-1.214;2022-09-17T16:06:53;0;0;
47982;PMS5003;33751;50.816;-1.214;2022-09-17T16:09:57;0;0;
47982;PMS5003;33751;50.816;-1.214;2022-09-17T16:12:24;1;1;
47982;PMS5003;33751;50.816;-1.214;2022-09-17T16:14:52;0;0;
47982;PMS5003;33751;50.816;-1.214;2022-09-17T16:17:22;1;1;
47982;PMS5003;33751;50.816;-1.214;2022-09-17T16:19:52;0;0;
47982;PMS5003;33751;50.816;-1.214;2022-09-17T16:22:19;0;0;
47982;PMS5003;33751;50.816;-1.214;2022-09-17T16:24:45;1;0;
47982;PMS5003;33751;50.816;-1.214;2022-09-17T16:27:13;1;1;
47982;PMS5003;33751;50.816;-1.214;2022-09-17T16:29:43;0;0;
47982;PMS5003;33751;50.816;-1.214;2022-09-17T16:32:11;0;0;
47982;PMS5003;33751;50.816;-1.214;2022-09-17T16:34:37;1;1;
47982;PMS5003;33751;50.816;-1.214;2022-09-17T16:37:04;1;1;
47982;PMS5003;33751;50.816;-1.214;2022-09-17T16:39:31;0;0;
47982;PMS5003;33751;50.816;-1.214;2022-09-17T16:41:58;0;0;
47982;PMS5003;33751;50.816;-1.214;2022-09-17T16:44:25;0;0;
47982;PMS5003;33751;50.816;-1.214;2022-09-17T16:46:51;0;0;
47982;PMS5003;33751;50.816;-1.214;2022-09-17T16:49:18;0;0;
47982;PMS5003;33751;50.816;-1.214;2022-09-17T16:51:45;1;1;
47982;PMS5003;33751;50.816;-1.214;2022-09-17T16:54:11;2;1;
47982;PMS5003;33751;50.816;-1.214;2022-09-17T16:56:38;1;1;
47982;PMS5003;33751;50.816;-1.214;2022-09-17T16:59:04;0;0;